Portada
METAR-TAF:

METAR-TAF

Aeropuertos :

Johannesburgo, Sudáfrica

Aeropuerto Internacional de Johannesburgo-Oliver Reginald Tambo

latitud: 26-08S, longitud: 028-14E, altitud: 1694 m

Observación

El informe se hizo hace 1 hora y 5 minutos, a las 07:00 UTC
Viento 13 kt del norte
Temperatura 8°C
Humedad 71%
Presión 1032 hPa
Visibilidad 10 km o más
Escasas nubes a una altura de 600 ft

METAR: FAOR 200700Z 01013KT 9999 FEW006 08/03 Q1032 NOSIG

Hora: 10:05 (08:05 UTC)

Pronóstico

El informe se hizo hace 4 horas y 5 minutos, a las 04:00 UTC
Pronóstico válido del 20 a las 06 UTC al 21 a las 12 UTC
Viento 8 kt del noreste
Visibilidad 10 km o más
sin nubes por debajo de 1500 m y sin presencia de cumulonimbus.
Evolucionando progresivamente
del 20 a las 08 UTC al 20 a las 10 UTC
Viento 7 kt del norte

TAF: FAOR 200400Z 2006/2112 05008KT CAVOK BECMG 2008/2010 35007KT TX16/2112Z TN04/2104Z

Observaciones y pronósticos meteorológicos de más de 4000 aeropuertos (mensajes METAR y TAF).

Los puntos amarillos y rojos representan las estaciones disponibles.

Ponga el ratón en el punto deseado para ver el nombre de la estación.

Haga clic para ver las observaciones y los pronósticos meteorológicos.

Para cambiar el mapa : haga clic en los botones verdes con una cruz de color negro para hacer un zoom, en el botón verde con un guión para alejar o en las flechas verdes para mapas adyacentes.


METAR-TAF: